sensor_id;sensor_type;location;lat;lon;timestamp;temperature;humidity
8226;DHT22;4154;48.810;9.012;2023-04-03T00:00:50;4.20;94.40
8226;DHT22;4154;48.810;9.012;2023-04-03T00:03:17;4.10;94.60
8226;DHT22;4154;48.810;9.012;2023-04-03T00:08:10;4.20;94.40
8226;DHT22;4154;48.810;9.012;2023-04-03T00:10:37;4.20;94.30
8226;DHT22;4154;48.810;9.012;2023-04-03T00:13:04;4.30;94.30
8226;DHT22;4154;48.810;9.012;2023-04-03T00:17:57;4.20;94.20
8226;DHT22;4154;48.810;9.012;2023-04-03T00:20:22;4.20;94.60
8226;DHT22;4154;48.810;9.012;2023-04-03T00:22:48;4.20;94.60
8226;DHT22;4154;48.810;9.012;2023-04-03T00:25:14;4.20;94.60
8226;DHT22;4154;48.810;9.012;2023-04-03T00:27:40;4.30;94.60
8226;DHT22;4154;48.810;9.012;2023-04-03T00:30:15;4.30;94.70
8226;DHT22;4154;48.810;9.012;2023-04-03T00:37:36;4.20;94.20
8226;DHT22;4154;48.810;9.012;2023-04-03T00:40:04;4.30;99.90
8226;DHT22;4154;48.810;9.012;2023-04-03T00:47:23;4.30;99.90
8226;DHT22;4154;48.810;9.012;2023-04-03T00:49:50;4.30;94.60
8226;DHT22;4154;48.810;9.012;2023-04-03T00:52:20;4.30;94.40
8226;DHT22;4154;48.810;9.012;2023-04-03T00:54:49;4.20;94.50
8226;DHT22;4154;48.810;9.012;2023-04-03T00:57:16;4.60;99.90
8226;DHT22;4154;48.810;9.012;2023-04-03T00:59:49;4.30;94.50
8226;DHT22;4154;48.810;9.012;2023-04-03T01:04:45;4.30;94.30
8226;DHT22;4154;48.810;9.012;2023-04-03T01:09:42;4.20;94.70
8226;DHT22;4154;48.810;9.012;2023-04-03T01:12:16;4.10;94.60
8226;DHT22;4154;48.810;9.012;2023-04-03T01:14:44;4.10;94.70
8226;DHT22;4154;48.810;9.012;2023-04-03T01:23:07;4.10;94.80
8226;DHT22;4154;48.810;9.012;2023-04-03T01:25:46;4.10;94.80
8226;DHT22;4154;48.810;9.012;2023-04-03T01:28:21;4.00;94.60
8226;DHT22;4154;48.810;9.012;2023-04-03T01:36:27;4.10;94.70
8226;DHT22;4154;48.810;9.012;2023-04-03T01:38:56;4.00;94.90
8226;DHT22;4154;48.810;9.012;2023-04-03T01:41:24;4.10;99.90
8226;DHT22;4154;48.810;9.012;2023-04-03T01:46:18;4.20;99.90
8226;DHT22;4154;48.810;9.012;2023-04-03T01:51:10;4.10;94.80
8226;DHT22;4154;48.810;9.012;2023-04-03T01:56:02;4.10;94.90
8226;DHT22;4154;48.810;9.012;2023-04-03T02:05:47;4.00;94.90
8226;DHT22;4154;48.810;9.012;2023-04-03T02:13:05;4.10;99.90
8226;DHT22;4154;48.810;9.012;2023-04-03T02:15:31;4.00;95.10
8226;DHT22;4154;48.810;9.012;2023-04-03T02:20:23;4.00;94.80
8226;DHT22;4154;48.810;9.012;2023-04-03T02:25:15;4.00;94.80
8226;DHT22;4154;48.810;9.012;2023-04-03T02:27:41;4.50;99.90
8226;DHT22;4154;48.810;9.012;2023-04-03T02:30:06;4.00;95.00
8226;DHT22;4154;48.810;9.012;2023-04-03T02:32:34;4.00;94.90
8226;DHT22;4154;48.810;9.012;2023-04-03T02:35:00;4.00;94.90
8226;DHT22;4154;48.810;9.012;2023-04-03T02:39:52;4.00;94.70
8226;DHT22;4154;48.810;9.012;2023-04-03T02:42:17;4.00;95.20
8226;DHT22;4154;48.810;9.012;2023-04-03T02:44:43;4.00;99.90
8226;DHT22;4154;48.810;9.012;2023-04-03T02:49:34;4.00;94.70
8226;DHT22;4154;48.810;9.012;2023-04-03T02:52:00;4.00;94.80
8226;DHT22;4154;48.810;9.012;2023-04-03T02:54:26;4.00;94.70
8226;DHT22;4154;48.810;9.012;2023-04-03T02:56:54;4.00;94.70
8226;DHT22;4154;48.810;9.012;2023-04-03T02:59:20;4.00;94.50
8226;DHT22;4154;48.810;9.012;2023-04-03T03:01:45;4.00;94.50
8226;DHT22;4154;48.810;9.012;2023-04-03T03:04:11;4.00;94.50
8226;DHT22;4154;48.810;9.012;2023-04-03T03:13:56;4.00;94.30
8226;DHT22;4154;48.810;9.012;2023-04-03T03:16:21;4.00;94.50
8226;DHT22;4154;48.810;9.012;2023-04-03T03:26:08;3.90;94.50
8226;DHT22;4154;48.810;9.012;2023-04-03T03:28:36;3.90;94.80
8226;DHT22;4154;48.810;9.012;2023-04-03T03:31:03;3.90;94.70
8226;DHT22;4154;48.810;9.012;2023-04-03T03:35:56;3.90;94.50
8226;DHT22;4154;48.810;9.012;2023-04-03T03:43:16;3.70;94.40
8226;DHT22;4154;48.810;9.012;2023-04-03T03:48:09;3.80;94.20
8226;DHT22;4154;48.810;9.012;2023-04-03T03:57:53;3.90;94.00
8226;DHT22;4154;48.810;9.012;2023-04-03T04:00:19;3.90;94.00
8226;DHT22;4154;48.810;9.012;2023-04-03T04:02:45;3.80;93.80
8226;DHT22;4154;48.810;9.012;2023-04-03T04:05:11;3.80;93.90
8226;DHT22;4154;48.810;9.012;2023-04-03T04:10:03;3.90;93.80
8226;DHT22;4154;48.810;9.012;2023-04-03T04:14:55;3.90;93.70
8226;DHT22;4154;48.810;9.012;2023-04-03T04:17:21;3.90;99.90
8226;DHT22;4154;48.810;9.012;2023-04-03T04:19:47;3.90;93.90
8226;DHT22;4154;48.810;9.012;2023-04-03T04:22:12;3.90;93.80
8226;DHT22;4154;48.810;9.012;2023-04-03T04:27:04;3.90;93.70
8226;DHT22;4154;48.810;9.012;2023-04-03T04:29:29;3.90;93.80
8226;DHT22;4154;48.810;9.012;2023-04-03T04:39:21;4.00;93.20
8226;DHT22;4154;48.810;9.012;2023-04-03T04:44:13;3.90;93.10
8226;DHT22;4154;48.810;9.012;2023-04-03T04:46:39;3.80;92.90
8226;DHT22;4154;48.810;9.012;2023-04-03T04:49:04;3.60;93.10
8226;DHT22;4154;48.810;9.012;2023-04-03T04:53:56;3.70;92.60
8226;DHT22;4154;48.810;9.012;2023-04-03T04:56:22;3.80;92.80
8226;DHT22;4154;48.810;9.012;2023-04-03T04:58:48;3.80;92.80
8226;DHT22;4154;48.810;9.012;2023-04-03T05:06:06;3.90;92.30
8226;DHT22;4154;48.810;9.012;2023-04-03T05:23:10;3.90;91.50
8226;DHT22;4154;48.810;9.012;2023-04-03T05:25:40;3.90;91.70
8226;DHT22;4154;48.810;9.012;2023-04-03T05:45:13;4.00;91.90
8226;DHT22;4154;48.810;9.012;2023-04-03T05:50:06;4.00;92.10
8226;DHT22;4154;48.810;9.012;2023-04-03T05:52:36;3.90;92.20
8226;DHT22;4154;48.810;9.012;2023-04-03T05:55:03;4.50;92.60
8226;DHT22;4154;48.810;9.012;2023-04-03T06:02:23;3.90;92.60
8226;DHT22;4154;48.810;9.012;2023-04-03T06:07:19;4.00;92.30
8226;DHT22;4154;48.810;9.012;2023-04-03T06:36:44;4.20;92.50
8226;DHT22;4154;48.810;9.012;2023-04-03T06:39:16;4.20;92.40
8226;DHT22;4154;48.810;9.012;2023-04-03T07:01:24;4.50;92.40
8226;DHT22;4154;48.810;9.012;2023-04-03T07:03:52;4.40;92.50
8226;DHT22;4154;48.810;9.012;2023-04-03T07:06:18;4.40;92.40
8226;DHT22;4154;48.810;9.012;2023-04-03T07:11:12;4.20;92.60
8226;DHT22;4154;48.810;9.012;2023-04-03T07:16:06;4.20;92.70
8226;DHT22;4154;48.810;9.012;2023-04-03T07:28:20;4.50;92.60
8226;DHT22;4154;48.810;9.012;2023-04-03T07:30:53;4.50;92.80
8226;DHT22;4154;48.810;9.012;2023-04-03T07:40:48;4.70;92.70
8226;DHT22;4154;48.810;9.012;2023-04-03T07:43:17;4.70;92.40
8226;DHT22;4154;48.810;9.012;2023-04-03T07:48:11;4.80;92.40
8226;DHT22;4154;48.810;9.012;2023-04-03T07:50:40;4.80;92.50
8226;DHT22;4154;48.810;9.012;2023-04-03T07:53:06;4.80;92.70
8226;DHT22;4154;48.810;9.012;2023-04-03T07:55:32;4.80;92.50
8226;DHT22;4154;48.810;9.012;2023-04-03T07:57:58;4.80;92.50
8226;DHT22;4154;48.810;9.012;2023-04-03T08:02:50;4.70;92.30
8226;DHT22;4154;48.810;9.012;2023-04-03T08:05:20;4.60;92.90
8226;DHT22;4154;48.810;9.012;2023-04-03T08:07:47;4.60;92.90
8226;DHT22;4154;48.810;9.012;2023-04-03T08:10:13;4.70;93.20
8226;DHT22;4154;48.810;9.012;2023-04-03T08:12:40;4.70;92.80
8226;DHT22;4154;48.810;9.012;2023-04-03T08:15:08;4.70;92.60
8226;DHT22;4154;48.810;9.012;2023-04-03T08:17:34;4.80;92.70
8226;DHT22;4154;48.810;9.012;2023-04-03T08:20:01;4.80;92.80
8226;DHT22;4154;48.810;9.012;2023-04-03T08:22:28;4.80;92.80
8226;DHT22;4154;48.810;9.012;2023-04-03T08:27:19;4.90;99.90
8226;DHT22;4154;48.810;9.012;2023-04-03T08:29:45;4.90;93.40
8226;DHT22;4154;48.810;9.012;2023-04-03T08:32:10;5.00;92.80
8226;DHT22;4154;48.810;9.012;2023-04-03T08:34:36;5.10;93.10
8226;DHT22;4154;48.810;9.012;2023-04-03T08:37:04;5.10;93.00
8226;DHT22;4154;48.810;9.012;2023-04-03T08:39:31;5.10;92.60
8226;DHT22;4154;48.810;9.012;2023-04-03T08:41:58;5.10;92.50
8226;DHT22;4154;48.810;9.012;2023-04-03T08:47:25;5.10;92.50
8226;DHT22;4154;48.810;9.012;2023-04-03T08:50:16;5.20;92.30
8226;DHT22;4154;48.810;9.012;2023-04-03T08:52:47;5.30;92.50
8226;DHT22;4154;48.810;9.012;2023-04-03T08:55:25;5.30;92.70
8226;DHT22;4154;48.810;9.012;2023-04-03T08:58:03;5.60;99.10
8226;DHT22;4154;48.810;9.012;2023-04-03T09:00:45;5.90;99.30
8226;DHT22;4154;48.810;9.012;2023-04-03T09:03:16;5.40;92.20
8226;DHT22;4154;48.810;9.012;2023-04-03T09:05:53;5.30;92.40
8226;DHT22;4154;48.810;9.012;2023-04-03T09:08:34;5.40;92.20
8226;DHT22;4154;48.810;9.012;2023-04-03T09:11:24;5.50;91.90
8226;DHT22;4154;48.810;9.012;2023-04-03T09:14:07;5.70;92.00
8226;DHT22;4154;48.810;9.012;2023-04-03T09:17:02;5.80;92.50
8226;DHT22;4154;48.810;9.012;2023-04-03T09:19:46;5.80;91.60
8226;DHT22;4154;48.810;9.012;2023-04-03T09:22:26;5.90;99.00
8226;DHT22;4154;48.810;9.012;2023-04-03T09:27:42;5.90;92.50
8226;DHT22;4154;48.810;9.012;2023-04-03T09:30:23;5.90;92.10
8226;DHT22;4154;48.810;9.012;2023-04-03T09:32:53;6.00;91.40
8226;DHT22;4154;48.810;9.012;2023-04-03T09:35:27;6.00;91.60
8226;DHT22;4154;48.810;9.012;2023-04-03T09:40:38;6.00;90.80
8226;DHT22;4154;48.810;9.012;2023-04-03T09:43:26;6.00;91.00
8226;DHT22;4154;48.810;9.012;2023-04-03T09:46:16;5.90;91.50
8226;DHT22;4154;48.810;9.012;2023-04-03T09:48:59;6.00;90.80
8226;DHT22;4154;48.810;9.012;2023-04-03T09:51:30;6.10;91.10
8226;DHT22;4154;48.810;9.012;2023-04-03T09:53:57;6.00;90.70
8226;DHT22;4154;48.810;9.012;2023-04-03T09:56:25;6.20;90.30
8226;DHT22;4154;48.810;9.012;2023-04-03T10:04:05;6.20;90.40
8226;DHT22;4154;48.810;9.012;2023-04-03T10:06:38;6.10;88.60
8226;DHT22;4154;48.810;9.012;2023-04-03T10:14:30;6.20;88.30
8226;DHT22;4154;48.810;9.012;2023-04-03T10:29:48;6.20;87.60
8226;DHT22;4154;48.810;9.012;2023-04-03T10:36:00;6.30;89.40
8226;DHT22;4154;48.810;9.012;2023-04-03T10:39:12;6.40;89.20
8226;DHT22;4154;48.810;9.012;2023-04-03T10:44:57;6.40;88.40
8226;DHT22;4154;48.810;9.012;2023-04-03T10:47:55;6.30;87.30
8226;DHT22;4154;48.810;9.012;2023-04-03T10:53:52;6.40;87.60
8226;DHT22;4154;48.810;9.012;2023-04-03T10:56:40;6.40;87.60
8226;DHT22;4154;48.810;9.012;2023-04-03T11:02:28;6.40;86.00
8226;DHT22;4154;48.810;9.012;2023-04-03T11:05:17;6.40;86.20
8226;DHT22;4154;48.810;9.012;2023-04-03T11:07:52;6.30;86.30
8226;DHT22;4154;48.810;9.012;2023-04-03T11:10:26;6.30;86.50
8226;DHT22;4154;48.810;9.012;2023-04-03T11:13:04;6.20;86.30
8226;DHT22;4154;48.810;9.012;2023-04-03T11:15:32;6.10;85.40
8226;DHT22;4154;48.810;9.012;2023-04-03T11:18:03;6.00;86.30
8226;DHT22;4154;48.810;9.012;2023-04-03T11:20:48;6.00;86.20
8226;DHT22;4154;48.810;9.012;2023-04-03T11:23:25;6.00;86.60
8226;DHT22;4154;48.810;9.012;2023-04-03T11:25:55;6.10;86.90
8226;DHT22;4154;48.810;9.012;2023-04-03T11:28:24;6.10;87.30
8226;DHT22;4154;48.810;9.012;2023-04-03T11:31:08;6.10;87.50
8226;DHT22;4154;48.810;9.012;2023-04-03T11:33:42;6.30;86.10
8226;DHT22;4154;48.810;9.012;2023-04-03T11:38:45;6.50;84.90
8226;DHT22;4154;48.810;9.012;2023-04-03T11:44:04;6.60;85.20
8226;DHT22;4154;48.810;9.012;2023-04-03T11:46:57;6.50;84.60
8226;DHT22;4154;48.810;9.012;2023-04-03T11:50:01;6.50;84.30
8226;DHT22;4154;48.810;9.012;2023-04-03T12:14:03;6.60;85.00
8226;DHT22;4154;48.810;9.012;2023-04-03T12:19:38;6.60;84.90
8226;DHT22;4154;48.810;9.012;2023-04-03T12:22:12;6.80;84.70
8226;DHT22;4154;48.810;9.012;2023-04-03T12:24:50;6.90;83.80
8226;DHT22;4154;48.810;9.012;2023-04-03T12:27:29;6.90;93.70
8226;DHT22;4154;48.810;9.012;2023-04-03T12:30:03;6.90;83.50
8226;DHT22;4154;48.810;9.012;2023-04-03T12:32:51;7.00;82.30
8226;DHT22;4154;48.810;9.012;2023-04-03T12:35:39;7.10;81.00
8226;DHT22;4154;48.810;9.012;2023-04-03T12:41:51;7.20;79.80
8226;DHT22;4154;48.810;9.012;2023-04-03T12:44:44;7.20;80.90
8226;DHT22;4154;48.810;9.012;2023-04-03T12:47:35;7.30;92.20
8226;DHT22;4154;48.810;9.012;2023-04-03T12:50:13;7.30;80.10
8226;DHT22;4154;48.810;9.012;2023-04-03T12:53:01;7.20;81.10
8226;DHT22;4154;48.810;9.012;2023-04-03T12:55:30;7.50;92.40
8226;DHT22;4154;48.810;9.012;2023-04-03T13:00:38;7.30;80.60
8226;DHT22;4154;48.810;9.012;2023-04-03T13:03:06;7.50;92.90
8226;DHT22;4154;48.810;9.012;2023-04-03T13:05:47;7.60;92.50
8226;DHT22;4154;48.810;9.012;2023-04-03T13:08:14;7.60;79.00
8226;DHT22;4154;48.810;9.012;2023-04-03T13:10:58;7.50;79.30
8226;DHT22;4154;48.810;9.012;2023-04-03T13:13:26;7.50;80.30
8226;DHT22;4154;48.810;9.012;2023-04-03T13:15:52;7.40;79.30
8226;DHT22;4154;48.810;9.012;2023-04-03T13:18:26;7.50;79.80
8226;DHT22;4154;48.810;9.012;2023-04-03T13:21:01;7.30;81.40
8226;DHT22;4154;48.810;9.012;2023-04-03T13:25:57;7.20;81.40
8226;DHT22;4154;48.810;9.012;2023-04-03T13:33:36;7.20;93.80
8226;DHT22;4154;48.810;9.012;2023-04-03T13:36:29;7.00;81.40
8226;DHT22;4154;48.810;9.012;2023-04-03T13:39:00;7.10;79.40
8226;DHT22;4154;48.810;9.012;2023-04-03T13:41:44;7.00;81.80
8226;DHT22;4154;48.810;9.012;2023-04-03T13:44:17;6.90;93.50
8226;DHT22;4154;48.810;9.012;2023-04-03T13:46:59;7.00;82.00
8226;DHT22;4154;48.810;9.012;2023-04-03T13:49:42;6.80;83.50
8226;DHT22;4154;48.810;9.012;2023-04-03T13:52:34;6.90;83.60
8226;DHT22;4154;48.810;9.012;2023-04-03T13:55:30;6.90;82.40
8226;DHT22;4154;48.810;9.012;2023-04-03T13:58:19;7.00;80.70
8226;DHT22;4154;48.810;9.012;2023-04-03T14:03:23;7.30;78.30
8226;DHT22;4154;48.810;9.012;2023-04-03T14:05:52;7.10;92.30
8226;DHT22;4154;48.810;9.012;2023-04-03T14:08:19;7.30;79.70
8226;DHT22;4154;48.810;9.012;2023-04-03T14:10:45;7.40;91.80
8226;DHT22;4154;48.810;9.012;2023-04-03T14:13:17;7.30;78.90
8226;DHT22;4154;48.810;9.012;2023-04-03T14:15:46;7.40;76.60
8226;DHT22;4154;48.810;9.012;2023-04-03T14:18:16;7.40;77.20
8226;DHT22;4154;48.810;9.012;2023-04-03T14:20:44;7.50;78.00
8226;DHT22;4154;48.810;9.012;2023-04-03T14:23:10;7.50;78.20
8226;DHT22;4154;48.810;9.012;2023-04-03T14:25:36;7.50;77.30
8226;DHT22;4154;48.810;9.012;2023-04-03T14:28:16;7.50;91.40
8226;DHT22;4154;48.810;9.012;2023-04-03T14:30:48;7.50;77.90
8226;DHT22;4154;48.810;9.012;2023-04-03T14:33:18;7.40;78.20
8226;DHT22;4154;48.810;9.012;2023-04-03T14:35:46;7.50;77.30
8226;DHT22;4154;48.810;9.012;2023-04-03T14:38:27;7.40;76.60
8226;DHT22;4154;48.810;9.012;2023-04-03T14:40:55;7.30;78.40
8226;DHT22;4154;48.810;9.012;2023-04-03T14:45:49;7.30;79.30
8226;DHT22;4154;48.810;9.012;2023-04-03T14:48:19;7.30;78.30
8226;DHT22;4154;48.810;9.012;2023-04-03T14:50:48;7.30;79.80
8226;DHT22;4154;48.810;9.012;2023-04-03T14:53:18;7.20;80.40
8226;DHT22;4154;48.810;9.012;2023-04-03T14:55:48;7.30;75.90
8226;DHT22;4154;48.810;9.012;2023-04-03T14:58:17;7.30;75.10
8226;DHT22;4154;48.810;9.012;2023-04-03T15:00:45;7.30;74.90
8226;DHT22;4154;48.810;9.012;2023-04-03T15:03:16;7.30;75.30
8226;DHT22;4154;48.810;9.012;2023-04-03T15:05:45;7.30;75.10
8226;DHT22;4154;48.810;9.012;2023-04-03T15:08:25;7.40;90.40
8226;DHT22;4154;48.810;9.012;2023-04-03T15:13:21;7.80;90.70
8226;DHT22;4154;48.810;9.012;2023-04-03T15:15:49;7.90;74.10
8226;DHT22;4154;48.810;9.012;2023-04-03T15:18:22;7.90;74.60
8226;DHT22;4154;48.810;9.012;2023-04-03T15:25:48;7.70;75.10
8226;DHT22;4154;48.810;9.012;2023-04-03T15:28:23;7.60;75.00
8226;DHT22;4154;48.810;9.012;2023-04-03T15:30:53;7.40;76.60
8226;DHT22;4154;48.810;9.012;2023-04-03T15:33:19;7.30;74.90
8226;DHT22;4154;48.810;9.012;2023-04-03T15:35:46;7.20;73.90
8226;DHT22;4154;48.810;9.012;2023-04-03T15:38:11;7.20;75.20
8226;DHT22;4154;48.810;9.012;2023-04-03T15:40:38;7.30;76.00
8226;DHT22;4154;48.810;9.012;2023-04-03T15:43:05;7.70;72.30
8226;DHT22;4154;48.810;9.012;2023-04-03T15:45:33;7.70;72.80
8226;DHT22;4154;48.810;9.012;2023-04-03T15:50:27;8.00;70.90
8226;DHT22;4154;48.810;9.012;2023-04-03T15:52:53;7.80;73.20
8226;DHT22;4154;48.810;9.012;2023-04-03T15:55:24;7.80;73.70
8226;DHT22;4154;48.810;9.012;2023-04-03T15:57:52;7.60;75.30
8226;DHT22;4154;48.810;9.012;2023-04-03T16:00:19;7.30;76.10
8226;DHT22;4154;48.810;9.012;2023-04-03T16:02:46;7.00;75.70
8226;DHT22;4154;48.810;9.012;2023-04-03T16:05:15;6.90;76.20
8226;DHT22;4154;48.810;9.012;2023-04-03T16:07:42;6.90;75.20
8226;DHT22;4154;48.810;9.012;2023-04-03T16:10:09;7.00;75.60
8226;DHT22;4154;48.810;9.012;2023-04-03T16:12:36;7.10;76.30
8226;DHT22;4154;48.810;9.012;2023-04-03T16:15:02;7.20;76.60
8226;DHT22;4154;48.810;9.012;2023-04-03T16:17:29;7.20;75.20
8226;DHT22;4154;48.810;9.012;2023-04-03T16:19:57;7.20;73.80
8226;DHT22;4154;48.810;9.012;2023-04-03T16:22:24;7.50;89.20
8226;DHT22;4154;48.810;9.012;2023-04-03T16:24:51;7.10;90.20
8226;DHT22;4154;48.810;9.012;2023-04-03T16:27:17;7.90;89.30
8226;DHT22;4154;48.810;9.012;2023-04-03T16:29:42;7.40;73.90
8226;DHT22;4154;48.810;9.012;2023-04-03T16:34:34;7.70;73.30
8226;DHT22;4154;48.810;9.012;2023-04-03T16:37:00;7.80;72.70
8226;DHT22;4154;48.810;9.012;2023-04-03T16:39:26;8.40;88.50
8226;DHT22;4154;48.810;9.012;2023-04-03T16:41:52;7.90;72.90
8226;DHT22;4154;48.810;9.012;2023-04-03T16:44:17;7.80;72.40
8226;DHT22;4154;48.810;9.012;2023-04-03T16:46:43;7.50;72.80
8226;DHT22;4154;48.810;9.012;2023-04-03T16:49:09;7.20;74.20
8226;DHT22;4154;48.810;9.012;2023-04-03T16:54:01;6.90;73.90
8226;DHT22;4154;48.810;9.012;2023-04-03T16:58:53;6.50;74.90
8226;DHT22;4154;48.810;9.012;2023-04-03T17:01:21;6.50;75.30
8226;DHT22;4154;48.810;9.012;2023-04-03T17:03:48;6.50;76.40
8226;DHT22;4154;48.810;9.012;2023-04-03T17:06:19;6.50;76.70
8226;DHT22;4154;48.810;9.012;2023-04-03T17:08:47;6.40;77.00
8226;DHT22;4154;48.810;9.012;2023-04-03T17:11:14;6.30;77.70
8226;DHT22;4154;48.810;9.012;2023-04-03T17:16:09;6.40;76.80
8226;DHT22;4154;48.810;9.012;2023-04-03T17:21:05;6.50;75.50
8226;DHT22;4154;48.810;9.012;2023-04-03T17:23:32;6.40;76.50
8226;DHT22;4154;48.810;9.012;2023-04-03T17:26:00;6.40;75.60
8226;DHT22;4154;48.810;9.012;2023-04-03T17:28:27;6.40;76.40
8226;DHT22;4154;48.810;9.012;2023-04-03T17:31:00;6.40;76.60
8226;DHT22;4154;48.810;9.012;2023-04-03T17:33:28;6.30;76.40
8226;DHT22;4154;48.810;9.012;2023-04-03T17:35:58;6.30;76.80
8226;DHT22;4154;48.810;9.012;2023-04-03T17:38:27;6.30;77.50
8226;DHT22;4154;48.810;9.012;2023-04-03T17:41:05;6.20;77.50
8226;DHT22;4154;48.810;9.012;2023-04-03T17:46:01;6.10;77.50
8226;DHT22;4154;48.810;9.012;2023-04-03T17:48:32;6.20;77.70
8226;DHT22;4154;48.810;9.012;2023-04-03T17:53:28;6.20;76.10
8226;DHT22;4154;48.810;9.012;2023-04-03T17:55:54;6.20;77.20
8226;DHT22;4154;48.810;9.012;2023-04-03T17:58:20;6.20;78.30
8226;DHT22;4154;48.810;9.012;2023-04-03T18:00:45;6.10;79.40
8226;DHT22;4154;48.810;9.012;2023-04-03T18:05:37;6.00;77.90
8226;DHT22;4154;48.810;9.012;2023-04-03T18:08:03;6.00;77.90
8226;DHT22;4154;48.810;9.012;2023-04-03T18:10:29;5.90;77.30
8226;DHT22;4154;48.810;9.012;2023-04-03T18:12:55;5.90;77.10
8226;DHT22;4154;48.810;9.012;2023-04-03T18:15:23;5.90;77.10
8226;DHT22;4154;48.810;9.012;2023-04-03T18:17:50;5.70;90.90
8226;DHT22;4154;48.810;9.012;2023-04-03T18:22:47;5.70;75.90
8226;DHT22;4154;48.810;9.012;2023-04-03T18:25:13;5.70;77.10
8226;DHT22;4154;48.810;9.012;2023-04-03T18:27:41;5.70;77.60
8226;DHT22;4154;48.810;9.012;2023-04-03T18:30:10;5.70;77.40
8226;DHT22;4154;48.810;9.012;2023-04-03T18:32:39;5.70;77.40
8226;DHT22;4154;48.810;9.012;2023-04-03T18:35:06;5.70;76.70
8226;DHT22;4154;48.810;9.012;2023-04-03T18:40:02;5.60;76.70
8226;DHT22;4154;48.810;9.012;2023-04-03T18:44:57;5.50;76.50
8226;DHT22;4154;48.810;9.012;2023-04-03T18:47:27;5.50;91.40
8226;DHT22;4154;48.810;9.012;2023-04-03T18:49:53;5.50;77.70
8226;DHT22;4154;48.810;9.012;2023-04-03T18:52:19;5.50;77.30
8226;DHT22;4154;48.810;9.012;2023-04-03T18:54:45;5.40;91.20
8226;DHT22;4154;48.810;9.012;2023-04-03T19:02:11;5.40;76.50
8226;DHT22;4154;48.810;9.012;2023-04-03T19:07:11;5.40;77.00
8226;DHT22;4154;48.810;9.012;2023-04-03T19:09:48;5.30;77.00
8226;DHT22;4154;48.810;9.012;2023-04-03T19:12:29;5.30;76.70
8226;DHT22;4154;48.810;9.012;2023-04-03T19:15:13;5.30;77.50
8226;DHT22;4154;48.810;9.012;2023-04-03T19:17:46;5.20;77.10
8226;DHT22;4154;48.810;9.012;2023-04-03T19:25:13;5.00;76.80
8226;DHT22;4154;48.810;9.012;2023-04-03T19:27:42;5.00;76.40
8226;DHT22;4154;48.810;9.012;2023-04-03T19:32:43;5.00;76.60
8226;DHT22;4154;48.810;9.012;2023-04-03T19:37:46;4.90;76.70
8226;DHT22;4154;48.810;9.012;2023-04-03T19:45:09;4.80;78.00
8226;DHT22;4154;48.810;9.012;2023-04-03T19:47:39;4.60;78.30
8226;DHT22;4154;48.810;9.012;2023-04-03T19:55:26;4.50;79.30
8226;DHT22;4154;48.810;9.012;2023-04-03T20:01:21;4.30;80.40
8226;DHT22;4154;48.810;9.012;2023-04-03T20:06:14;4.30;80.30
8226;DHT22;4154;48.810;9.012;2023-04-03T20:16:05;4.40;79.10
8226;DHT22;4154;48.810;9.012;2023-04-03T20:21:00;4.50;78.60
8226;DHT22;4154;48.810;9.012;2023-04-03T20:23:28;4.40;78.30
8226;DHT22;4154;48.810;9.012;2023-04-03T20:25:56;4.40;78.70
8226;DHT22;4154;48.810;9.012;2023-04-03T20:28:24;4.40;79.00
8226;DHT22;4154;48.810;9.012;2023-04-03T20:30:51;4.40;78.40
8226;DHT22;4154;48.810;9.012;2023-04-03T20:33:20;4.30;78.10
8226;DHT22;4154;48.810;9.012;2023-04-03T20:36:06;4.30;78.50
8226;DHT22;4154;48.810;9.012;2023-04-03T20:38:32;4.30;78.80
8226;DHT22;4154;48.810;9.012;2023-04-03T20:43:24;4.10;78.90
8226;DHT22;4154;48.810;9.012;2023-04-03T20:45:50;4.10;79.00
8226;DHT22;4154;48.810;9.012;2023-04-03T20:48:16;4.00;79.20
8226;DHT22;4154;48.810;9.012;2023-04-03T20:50:42;3.90;79.00
8226;DHT22;4154;48.810;9.012;2023-04-03T20:55:36;3.90;78.70
8226;DHT22;4154;48.810;9.012;2023-04-03T21:00:30;3.70;79.60
8226;DHT22;4154;48.810;9.012;2023-04-03T21:02:58;3.70;80.10
8226;DHT22;4154;48.810;9.012;2023-04-03T21:25:26;3.20;80.60
8226;DHT22;4154;48.810;9.012;2023-04-03T21:27:52;2.70;93.50
8226;DHT22;4154;48.810;9.012;2023-04-03T21:30:18;2.90;81.90
8226;DHT22;4154;48.810;9.012;2023-04-03T21:32:44;2.90;82.10
8226;DHT22;4154;48.810;9.012;2023-04-03T21:35:09;2.90;81.50
8226;DHT22;4154;48.810;9.012;2023-04-03T21:37:35;2.80;93.70
8226;DHT22;4154;48.810;9.012;2023-04-03T21:42:27;2.80;81.70
8226;DHT22;4154;48.810;9.012;2023-04-03T21:54:39;2.70;81.00
8226;DHT22;4154;48.810;9.012;2023-04-03T21:57:05;2.70;93.50
8226;DHT22;4154;48.810;9.012;2023-04-03T22:02:02;2.60;93.40
8226;DHT22;4154;48.810;9.012;2023-04-03T22:04:28;2.70;81.50
8226;DHT22;4154;48.810;9.012;2023-04-03T22:06:54;2.70;81.50
8226;DHT22;4154;48.810;9.012;2023-04-03T22:09:23;2.70;81.20
8226;DHT22;4154;48.810;9.012;2023-04-03T22:21:39;2.70;81.50
8226;DHT22;4154;48.810;9.012;2023-04-03T22:24:06;2.60;81.40
8226;DHT22;4154;48.810;9.012;2023-04-03T22:28:59;2.50;81.60
8226;DHT22;4154;48.810;9.012;2023-04-03T22:31:25;2.40;93.80
8226;DHT22;4154;48.810;9.012;2023-04-03T22:46:05;2.50;81.70
8226;DHT22;4154;48.810;9.012;2023-04-03T22:48:33;2.40;82.00
8226;DHT22;4154;48.810;9.012;2023-04-03T22:55:56;2.40;81.90
8226;DHT22;4154;48.810;9.012;2023-04-03T23:01:03;2.30;82.20
8226;DHT22;4154;48.810;9.012;2023-04-03T23:10:58;2.40;94.40
8226;DHT22;4154;48.810;9.012;2023-04-03T23:15:59;2.80;94.40
8226;DHT22;4154;48.810;9.012;2023-04-03T23:18:27;2.20;83.40
8226;DHT22;4154;48.810;9.012;2023-04-03T23:23:23;2.10;82.80
8226;DHT22;4154;48.810;9.012;2023-04-03T23:25:57;2.00;83.10
8226;DHT22;4154;48.810;9.012;2023-04-03T23:31:01;2.00;82.70
8226;DHT22;4154;48.810;9.012;2023-04-03T23:33:29;2.00;83.30
8226;DHT22;4154;48.810;9.012;2023-04-03T23:35:55;2.00;83.30
8226;DHT22;4154;48.810;9.012;2023-04-03T23:50:35;1.80;94.20
8226;DHT22;4154;48.810;9.012;2023-04-03T23:53:01;1.70;94.20
8226;DHT22;4154;48.810;9.012;2023-04-03T23:55:27;1.80;83.80
